Time;durP1;ratioP1;P1;durP2;ratioP2;P2;SDS_P1;SDS_P2;PMS_P1;PMS_P2;Temp;Humidity;BMP_temperature;BMP_pressure;BME280_temperature;BME280_humidity;BME280_pressure;Samples;Min_cycle;Max_cycle;Signal;HPM_P1;HPM_P2
2021/08/22 00:02:00;;;;;;;13.70;11.00;;;;;;;12.43;75.43;100689.34;1714375;83;27547;-61
2021/08/22 00:04:26;;;;;;;14.73;11.85;;;;;;;12.41;75.66;100690.22;1714242;83;25761;-61
2021/08/22 00:06:52;;;;;;;15.38;12.10;;;;;;;12.37;75.81;100693.85;1690920;83;25781;-61
2021/08/22 00:09:19;;;;;;;14.55;11.55;;;;;;;12.33;75.95;100682.83;1725669;83;25818;-61
2021/08/22 00:11:45;;;;;;;15.83;12.50;;;;;;;12.30;76.10;100683.44;1725604;83;25698;-61
2021/08/22 00:14:11;;;;;;;17.98;12.37;;;;;;;12.24;76.08;100681.42;1725640;83;27322;-61
2021/08/22 00:16:38;;;;;;;16.55;13.03;;;;;;;12.20;76.24;100681.78;1700700;83;26024;-61
2021/08/22 00:19:04;;;;;;;18.65;11.95;;;;;;;12.17;76.41;100676.98;1725622;83;25898;-61
2021/08/22 00:21:30;;;;;;;15.15;10.70;;;;;;;12.15;76.35;100679.20;1725690;83;25774;-61
2021/08/22 00:23:57;;;;;;;14.03;10.68;;;;;;;12.15;76.29;100676.49;1725739;83;25709;-61
2021/08/22 00:26:23;;;;;;;16.32;11.50;;;;;;;12.14;76.29;100676.27;1725597;83;29585;-61
2021/08/22 00:28:49;;;;;;;16.30;11.03;;;;;;;12.11;76.11;100679.59;1725670;83;26391;-61
2021/08/22 00:31:16;;;;;;;16.00;11.48;;;;;;;12.08;76.07;100670.71;1725783;83;25799;-61
2021/08/22 00:33:42;;;;;;;14.20;11.18;;;;;;;12.06;76.06;100677.80;1725510;83;25852;-61
2021/08/22 00:36:09;;;;;;;13.28;10.78;;;;;;;12.04;76.01;100675.16;1725688;83;25680;-61
2021/08/22 00:38:35;;;;;;;16.85;11.93;;;;;;;12.00;76.24;100676.31;1725639;83;28073;-61
2021/08/22 00:41:04;;;;;;;18.67;11.70;;;;;;;11.97;76.56;100678.31;1725633;83;25890;-61
2021/08/22 00:43:31;;;;;;;15.18;12.88;;;;;;;11.94;76.46;100676.21;1725826;83;25802;-61
2021/08/22 00:45:58;;;;;;;14.73;11.40;;;;;;;11.92;76.40;100679.79;1700847;83;25796;-61
2021/08/22 00:48:30;;;;;;;15.72;11.97;;;;;;;11.89;76.23;100675.73;1725692;83;25727;-61
2021/08/22 00:50:59;;;;;;;19.57;12.53;;;;;;;11.87;76.28;100673.11;1725689;83;27359;-61
2021/08/22 00:53:25;;;;;;;17.80;11.78;;;;;;;11.87;76.59;100676.61;1725699;83;26423;-61
2021/08/22 00:55:54;;;;;;;18.00;13.30;;;;;;;11.84;76.65;100677.78;1725651;83;25704;-61
2021/08/22 00:58:20;;;;;;;17.87;13.10;;;;;;;11.78;76.55;100674.37;1725882;83;25692;-61
2021/08/22 01:00:49;;;;;;;19.77;11.93;;;;;;;11.73;76.51;100673.14;1725687;83;25889;-61
2021/08/22 01:03:23;;;;;;;16.17;12.13;;;;;;;11.68;76.51;100671.91;1725657;83;27418;-61
2021/08/22 01:06:10;;;;;;;16.90;13.25;;;;;;;11.63;76.69;100673.38;1703247;83;25848;-61
2021/08/22 01:08:40;;;;;;;20.50;12.28;;;;;;;11.58;77.03;100671.05;1714501;83;25757;-61
2021/08/22 01:11:17;;;;;;;15.68;12.37;;;;;;;11.55;77.29;100664.88;1714351;83;26306;-61
2021/08/22 01:13:51;;;;;;;17.25;12.25;;;;;;;11.52;77.27;100663.34;1714297;83;25717;-61
2021/08/22 01:16:20;;;;;;;15.88;12.82;;;;;;;11.48;77.44;100665.86;1713287;83;27399;-61
2021/08/22 01:18:50;;;;;;;21.27;12.82;;;;;;;11.47;77.56;100667.52;1714276;83;25928;-61
2021/08/22 01:21:21;;;;;;;17.65;12.10;;;;;;;11.46;77.71;100672.14;1714314;83;26318;-61
2021/08/22 01:23:57;;;;;;;14.63;11.90;;;;;;;11.44;77.94;100670.83;1713250;83;25844;-61
2021/08/22 01:26:34;;;;;;;17.55;11.38;;;;;;;11.43;77.92;100671.95;1714381;83;25699;-61
2021/08/22 01:29:00;;;;;;;15.88;11.50;;;;;;;11.40;77.77;100668.73;1714168;83;27341;-61
2021/08/22 01:31:38;;;;;;;15.50;11.28;;;;;;;11.36;77.57;100668.31;1714203;83;26523;-61
2021/08/22 01:34:04;;;;;;;18.73;12.15;;;;;;;11.33;77.72;100672.41;1714317;83;25674;-61
2021/08/22 01:36:32;;;;;;;14.63;12.03;;;;;;;11.32;77.71;100658.64;1714182;83;26032;-61
2021/08/22 01:39:05;;;;;;;17.57;12.07;;;;;;;11.34;77.95;100663.73;1685751;83;25951;-61
2021/08/22 01:41:32;;;;;;;20.37;12.65;;;;;;;11.33;78.08;100656.73;1714369;83;27399;-61
2021/08/22 01:44:00;;;;;;;15.32;11.88;;;;;;;11.33;78.11;100659.44;1714188;83;25716;-61
2021/08/22 01:46:32;;;;;;;16.85;11.63;;;;;;;11.32;78.26;100659.17;1714317;83;25736;-61
2021/08/22 01:49:00;;;;;;;16.25;11.90;;;;;;;11.32;78.21;100664.06;1714477;83;25786;-61
2021/08/22 01:51:32;;;;;;;15.43;11.95;;;;;;;11.34;78.68;100658.31;1714366;83;25721;-61
2021/08/22 01:54:02;;;;;;;15.90;11.73;;;;;;;11.31;78.51;100657.03;1714492;83;27386;-61
2021/08/22 01:56:33;;;;;;;16.57;12.23;;;;;;;11.31;78.40;100656.23;1714411;83;25991;-61
2021/08/22 01:59:01;;;;;;;19.50;12.18;;;;;;;11.30;78.20;100662.75;1714424;83;25663;-61
2021/08/22 02:01:27;;;;;;;17.07;12.70;;;;;;;11.29;78.07;100665.19;1714476;83;25782;-61
2021/08/22 02:04:15;;;;;;;16.23;12.65;;;;;;;11.27;78.01;100666.88;1714418;83;25669;-61
2021/08/22 02:07:05;;;;;;;19.67;13.35;;;;;;;11.24;77.72;100662.06;1714328;83;29463;-61
2021/08/22 02:09:53;;;;;;;15.53;12.88;;;;;;;11.21;77.99;100664.02;1626480;87;25855;-61
2021/08/22 02:12:21;;;;;;;15.65;11.43;;;;;;;11.18;77.90;100671.39;1626610;88;25789;-61
2021/08/22 02:14:58;;;;;;;17.00;12.78;;;;;;;11.15;77.91;100667.93;1626499;88;26415;-61
2021/08/22 02:17:32;;;;;;;16.60;12.37;;;;;;;11.12;78.09;100669.36;1613085;88;25787;-61
2021/08/22 02:20:00;;;;;;;17.37;11.88;;;;;;;11.10;78.53;100673.45;1626591;88;27339;-61
2021/08/22 02:22:28;;;;;;;14.20;11.03;;;;;;;11.09;78.57;100670.52;1655582;85;25988;-61
2021/08/22 02:24:56;;;;;;;19.77;12.93;;;;;;;11.06;78.28;100665.14;1678540;85;25757;-61
2021/08/22 02:27:24;;;;;;;17.27;13.23;;;;;;;11.05;78.13;100670.85;1678645;85;25831;-61
2021/08/22 02:29:51;;;;;;;15.35;12.20;;;;;;;11.02;78.37;100669.57;1639626;85;25696;-62
2021/08/22 02:32:18;;;;;;;19.80;13.80;;;;;;;10.99;78.32;100670.96;1678372;85;27945;-61
2021/08/22 02:34:44;;;;;;;23.50;13.10;;;;;;;10.97;78.62;100667.76;1678359;85;25715;-61
2021/08/22 02:37:10;;;;;;;16.02;12.28;;;;;;;10.98;78.96;100667.20;1678429;85;25743;-61
2021/08/22 02:39:37;;;;;;;20.95;14.63;;;;;;;10.97;79.10;100669.11;1683150;81;25727;-61
2021/08/22 02:42:05;;;;;;;16.35;12.98;;;;;;;10.98;79.19;100665.31;1758913;81;25697;-61
2021/08/22 02:44:33;;;;;;;17.48;12.05;;;;;;;10.98;79.11;100673.44;1758813;81;28010;-61
2021/08/22 02:47:00;;;;;;;17.70;13.13;;;;;;;10.98;79.01;100668.55;1758681;81;25811;-61
2021/08/22 02:49:26;;;;;;;19.82;13.18;;;;;;;10.99;78.88;100666.11;1758871;81;25724;-61
2021/08/22 02:51:53;;;;;;;18.70;12.45;;;;;;;10.99;79.01;100669.61;1758684;81;27889;-62
2021/08/22 02:54:19;;;;;;;17.85;13.40;;;;;;;11.01;79.20;100664.69;1758782;81;25896;-61
2021/08/22 02:56:45;;;;;;;21.02;12.73;;;;;;;11.03;79.28;100666.56;1758858;81;27379;-61
2021/08/22 02:59:11;;;;;;;21.33;13.18;;;;;;;11.07;79.37;100664.05;1758600;81;25674;-61
2021/08/22 03:01:38;;;;;;;15.05;12.25;;;;;;;11.10;79.59;100663.45;1758801;81;25720;-61
2021/08/22 03:04:05;;;;;;;19.17;13.13;;;;;;;11.14;79.65;100665.78;1758790;81;26352;-61
2021/08/22 03:06:32;;;;;;;18.80;13.05;;;;;;;11.18;79.85;100663.27;1758824;81;25725;-61
2021/08/22 03:09:00;;;;;;;20.85;12.68;;;;;;;11.21;79.86;100664.81;1758773;80;28070;-61
2021/08/22 03:11:26;;;;;;;16.62;12.95;;;;;;;11.26;79.81;100660.41;1758741;81;25721;-61
2021/08/22 03:13:52;;;;;;;21.45;14.25;;;;;;;11.26;79.85;100661.77;1758781;81;25681;-62
2021/08/22 03:16:19;;;;;;;23.32;16.20;;;;;;;11.25;80.00;100661.50;1758633;81;25746;-61
2021/08/22 03:18:45;;;;;;;21.27;14.75;;;;;;;11.27;80.41;100645.75;1758900;81;26354;-61
2021/08/22 03:21:11;;;;;;;21.73;15.68;;;;;;;11.28;80.63;100644.09;1758758;81;27336;-62
2021/08/22 03:23:38;;;;;;;22.17;15.30;;;;;;;11.30;81.04;100635.66;1720380;81;26692;-62
2021/08/22 03:26:04;;;;;;;29.55;17.80;;;;;;;11.31;81.26;100635.36;1758757;81;25667;-62
2021/08/22 03:28:30;;;;;;;22.20;16.48;;;;;;;11.33;81.27;100638.56;1758760;81;26376;-62
2021/08/22 03:30:57;;;;;;;20.43;14.45;;;;;;;11.34;81.09;100638.82;1758710;81;26383;-62
2021/08/22 03:33:23;;;;;;;26.10;17.32;;;;;;;11.34;80.84;100645.59;1758750;81;27386;-62
2021/08/22 03:35:49;;;;;;;20.02;15.72;;;;;;;11.34;81.42;100651.01;1758790;81;25782;-62
2021/08/22 03:38:16;;;;;;;22.55;16.27;;;;;;;11.33;81.10;100652.10;1758629;81;25749;-61
2021/08/22 03:40:42;;;;;;;19.60;15.08;;;;;;;11.34;81.26;100659.66;1758749;81;25963;-61
2021/08/22 03:43:09;;;;;;;19.80;14.33;;;;;;;11.35;80.99;100654.51;1758769;81;25690;-62
2021/08/22 03:45:35;;;;;;;20.35;15.18;;;;;;;11.35;81.07;100649.09;1758728;81;27379;-62
2021/08/22 03:48:02;;;;;;;24.57;14.73;;;;;;;11.36;80.96;100652.85;1758654;81;25728;-62
2021/08/22 03:50:28;;;;;;;21.62;16.95;;;;;;;11.38;80.80;100654.70;1758762;81;25790;-62
2021/08/22 03:52:55;;;;;;;29.60;16.45;;;;;;;11.39;81.29;100658.20;1758579;81;25788;-62
2021/08/22 03:55:22;;;;;;;22.45;15.88;;;;;;;11.42;81.26;100660.30;1758709;81;25666;-62
2021/08/22 03:57:48;;;;;;;21.70;15.23;;;;;;;11.44;81.14;100660.00;1758719;81;27564;-62
2021/08/22 04:00:16;;;;;;;22.42;15.05;;;;;;;11.46;81.09;100658.60;1758566;81;25679;-62
2021/08/22 04:02:44;;;;;;;22.40;15.88;;;;;;;11.47;81.28;100656.12;1758795;81;25670;-62
2021/08/22 04:05:12;;;;;;;20.27;14.80;;;;;;;11.48;81.19;100653.67;1758789;81;25769;-62
2021/08/22 04:07:45;;;;;;;21.00;14.93;;;;;;;11.52;81.23;100655.21;1758721;81;25669;-62
2021/08/22 04:10:09;;;;;;;24.43;15.67;;;;;;;11.54;81.25;100661.94;1758357;81;27323;-62
2021/08/22 04:12:36;;;;;;;21.97;15.58;;;;;;;11.54;81.22;100658.41;1758552;81;25708;-62
2021/08/22 04:15:04;;;;;;;22.75;15.80;;;;;;;11.56;81.32;100658.90;1758677;81;25713;-62
2021/08/22 04:17:31;;;;;;;20.68;15.68;;;;;;;11.57;81.34;100657.23;1739776;81;25962;-62
2021/08/22 04:19:57;;;;;;;19.15;14.63;;;;;;;11.58;81.23;100662.92;1758723;81;25894;-62
2021/08/22 04:22:24;;;;;;;22.48;14.15;;;;;;;11.59;81.19;100665.89;1758707;81;27167;-62
2021/08/22 04:24:50;;;;;;;22.85;14.40;;;;;;;11.62;81.24;100667.73;1758682;81;25645;-62
2021/08/22 04:27:17;;;;;;;21.97;14.90;;;;;;;11.62;81.13;100666.38;1758701;81;25744;-62
2021/08/22 04:29:43;;;;;;;20.72;15.45;;;;;;;11.64;81.14;100662.80;1758660;81;25806;-62
2021/08/22 04:32:10;;;;;;;21.20;15.43;;;;;;;11.66;81.27;100660.58;1758694;81;25734;-62
2021/08/22 04:34:37;;;;;;;23.05;16.23;;;;;;;11.68;81.44;100663.77;1758705;81;27501;-62
2021/08/22 04:37:04;;;;;;;24.75;16.42;;;;;;;11.72;81.76;100664.78;1758636;81;25744;-62
2021/08/22 04:39:30;;;;;;;23.52;15.78;;;;;;;11.74;81.83;100659.28;1758721;81;25797;-62
2021/08/22 04:41:57;;;;;;;23.12;16.10;;;;;;;11.78;82.08;100658.11;1758533;81;25688;-62
2021/08/22 04:44:23;;;;;;;21.80;15.68;;;;;;;11.85;82.20;100661.75;1758730;81;25762;-62
2021/08/22 04:46:49;;;;;;;20.68;15.08;;;;;;;11.92;82.50;100663.52;1758819;81;27286;-62
2021/08/22 04:49:16;;;;;;;21.42;15.25;;;;;;;12.00;82.87;100660.61;1758566;81;25697;-62
2021/08/22 04:51:42;;;;;;;25.72;17.45;;;;;;;12.08;83.18;100664.72;1739672;81;26383;-62
2021/08/22 04:54:08;;;;;;;24.15;17.07;;;;;;;12.20;83.49;100664.72;1758720;81;25808;-62
2021/08/22 04:56:35;;;;;;;23.42;16.27;;;;;;;12.26;83.36;100669.70;1758760;81;25702;-62
2021/08/22 04:59:01;;;;;;;22.07;15.53;;;;;;;12.35;83.69;100663.53;1739394;81;27326;-62
2021/08/22 05:01:27;;;;;;;25.55;16.77;;;;;;;12.45;83.54;100665.97;1758661;81;26038;-62
2021/08/22 05:03:54;;;;;;;21.35;14.83;;;;;;;12.49;83.50;100669.09;1758666;81;25789;-62
2021/08/22 05:06:20;;;;;;;20.77;15.50;;;;;;;12.55;83.26;100667.05;1758672;81;25690;-62
2021/08/22 05:08:46;;;;;;;19.23;14.73;;;;;;;12.60;83.45;100660.67;1760002;81;25709;-62
2021/08/22 05:11:12;;;;;;;22.90;15.75;;;;;;;12.67;83.63;100662.39;1761628;80;27373;-62
2021/08/22 05:13:39;;;;;;;20.95;15.43;;;;;;;12.75;83.66;100662.95;1761514;80;25725;-62
2021/08/22 05:16:07;;;;;;;22.65;15.78;;;;;;;12.82;83.66;100672.83;1761682;81;25738;-62
2021/08/22 05:18:34;;;;;;;22.10;15.78;;;;;;;12.89;83.72;100677.23;1761502;81;25773;-62
2021/08/22 05:21:00;;;;;;;19.52;15.43;;;;;;;12.97;83.85;100680.28;1761729;81;25644;-62
2021/08/22 05:23:27;;;;;;;24.55;16.02;;;;;;;13.06;84.04;100680.55;1761748;81;27319;-62
2021/08/22 05:25:54;;;;;;;20.35;14.40;;;;;;;13.15;84.15;100671.63;1761686;81;26080;-62
2021/08/22 05:28:20;;;;;;;20.27;15.08;;;;;;;13.20;83.76;100670.91;1761790;81;25628;-62
2021/08/22 05:30:47;;;;;;;21.37;15.50;;;;;;;13.29;84.22;100666.05;1761850;80;25789;-62
2021/08/22 05:33:13;;;;;;;20.90;15.45;;;;;;;13.43;84.66;100675.69;1744605;81;25786;-62
2021/08/22 05:35:39;;;;;;;21.90;15.10;;;;;;;13.55;84.35;100674.23;1761840;80;27317;-62
2021/08/22 05:38:07;;;;;;;20.65;14.90;;;;;;;13.64;84.56;100673.70;1761817;81;25635;-62
2021/08/22 05:40:35;;;;;;;24.35;15.13;;;;;;;13.79;84.85;100674.56;1761889;81;25764;-62
2021/08/22 05:43:01;;;;;;;21.77;14.45;;;;;;;13.94;84.84;100675.17;1761834;80;25783;-62
2021/08/22 05:45:28;;;;;;;22.02;15.00;;;;;;;14.06;84.50;100679.39;1761909;80;25670;-62
2021/08/22 05:47:55;;;;;;;20.17;14.43;;;;;;;14.13;84.02;100668.84;1761839;81;27471;-62
2021/08/22 05:50:21;;;;;;;21.23;13.93;;;;;;;14.24;84.13;100671.22;1761694;80;25764;-62
2021/08/22 05:52:47;;;;;;;16.80;13.20;;;;;;;14.32;84.02;100674.45;1761716;80;25666;-62
2021/08/22 05:55:16;;;;;;;20.43;13.25;;;;;;;14.40;83.63;100680.43;1761695;81;25734;-62
2021/08/22 05:57:43;;;;;;;21.85;14.38;;;;;;;14.49;83.79;100681.22;1744752;81;25728;-62
2021/08/22 06:00:11;;;;;;;18.57;13.90;;;;;;;14.63;84.32;100677.52;1761766;80;28286;-62
2021/08/22 06:02:38;;;;;;;19.85;14.10;;;;;;;14.80;84.67;100675.28;1761689;81;26485;-62
2021/08/22 06:05:06;;;;;;;20.00;14.73;;;;;;;14.97;84.56;100667.58;1761783;80;25722;-62
2021/08/22 06:07:33;;;;;;;19.27;12.93;;;;;;;15.14;84.73;100666.11;1761706;81;25705;-62
2021/08/22 06:10:00;;;;;;;17.27;12.90;;;;;;;15.32;84.44;100666.77;1761728;80;25688;-62
2021/08/22 06:12:27;;;;;;;19.35;13.43;;;;;;;15.47;83.96;100666.17;1761708;81;27312;-62
2021/08/22 06:14:53;;;;;;;16.20;13.53;;;;;;;15.60;83.80;100668.41;1761587;81;25665;-62
2021/08/22 06:17:20;;;;;;;15.30;12.23;;;;;;;15.75;83.64;100666.19;1733717;81;25746;-62
2021/08/22 06:19:46;;;;;;;21.05;13.22;;;;;;;15.87;83.08;100657.52;1761668;81;25701;-62
2021/08/22 06:22:13;;;;;;;20.02;12.75;;;;;;;15.97;82.47;100664.50;1761882;81;25696;-62
2021/08/22 06:24:39;;;;;;;17.48;12.35;;;;;;;16.02;81.72;100673.84;1761745;81;27575;-62
2021/08/22 06:27:06;;;;;;;20.25;12.00;;;;;;;16.10;81.57;100675.44;1761806;81;25831;-62
2021/08/22 06:29:32;;;;;;;18.37;12.10;;;;;;;16.24;81.74;100669.91;1761753;81;25767;-62
2021/08/22 06:31:59;;;;;;;15.60;12.60;;;;;;;16.38;81.41;100664.14;1752854;81;25922;-62
2021/08/22 06:34:25;;;;;;;17.87;12.80;;;;;;;16.52;80.73;100674.73;1733789;81;25789;-62
2021/08/22 06:36:51;;;;;;;14.78;11.68;;;;;;;16.61;79.81;100675.41;1733821;81;27906;-62
2021/08/22 06:39:18;;;;;;;13.40;10.60;;;;;;;16.69;79.48;100674.30;1761688;81;25816;-62
2021/08/22 06:41:44;;;;;;;14.55;12.03;;;;;;;16.83;80.26;100681.56;1761697;81;25656;-62
2021/08/22 06:44:11;;;;;;;16.87;11.33;;;;;;;16.98;79.54;100674.66;1761740;81;26355;-62
2021/08/22 06:46:38;;;;;;;17.05;10.80;;;;;;;17.11;79.34;100674.05;1761806;81;25763;-62
2021/08/22 06:49:04;;;;;;;13.15;9.93;;;;;;;17.21;78.52;100669.48;1761665;81;27292;-62
2021/08/22 06:51:30;;;;;;;14.25;10.48;;;;;;;17.21;78.12;100659.91;1761641;81;25665;-62
2021/08/22 06:53:57;;;;;;;12.33;9.33;;;;;;;17.31;78.34;100660.80;1761769;81;25728;-62
2021/08/22 06:56:25;;;;;;;12.85;9.88;;;;;;;17.44;78.89;100667.05;1761624;81;26361;-62
2021/08/22 06:58:51;;;;;;;12.47;9.13;;;;;;;17.65;78.58;100671.53;1761765;81;25693;-62
2021/08/22 07:01:18;;;;;;;12.25;9.48;;;;;;;17.84;77.69;100670.33;1733907;81;27328;-62
2021/08/22 07:03:44;;;;;;;11.55;8.78;;;;;;;17.99;77.69;100669.37;1761642;81;25684;-62
2021/08/22 07:06:11;;;;;;;10.70;8.48;;;;;;;18.23;77.78;100669.80;1761849;81;25716;-62
2021/08/22 07:08:37;;;;;;;9.90;8.55;;;;;;;18.52;77.16;100671.31;1761701;80;26098;-62
2021/08/22 07:11:03;;;;;;;9.85;8.03;;;;;;;18.70;75.74;100673.12;1761736;81;25800;-62
2021/08/22 07:13:30;;;;;;;11.45;8.38;;;;;;;18.80;74.32;100671.80;1761829;81;27320;-62
2021/08/22 07:15:56;;;;;;;8.65;7.42;;;;;;;18.85;73.97;100664.13;1761751;81;25714;-62
2021/08/22 07:18:22;;;;;;;12.88;8.10;;;;;;;18.98;74.32;100662.63;1761690;81;25742;-62
2021/08/22 07:20:48;;;;;;;9.28;7.12;;;;;;;19.12;73.43;100664.89;1733586;81;26338;-62
2021/08/22 07:23:15;;;;;;;9.53;6.47;;;;;;;19.15;72.46;100664.19;1761846;81;25772;-62
2021/08/22 07:25:41;;;;;;;9.93;7.03;;;;;;;19.20;72.92;100670.17;1761639;81;27304;-62
2021/08/22 07:28:08;;;;;;;9.23;7.37;;;;;;;19.29;72.06;100676.85;1761650;81;25680;-62
2021/08/22 07:30:34;;;;;;;11.25;7.97;;;;;;;19.32;71.72;100667.87;1761723;81;25745;-62
2021/08/22 07:33:03;;;;;;;8.00;6.60;;;;;;;19.35;71.33;100674.61;1761585;81;25793;-62
2021/08/22 07:35:29;;;;;;;8.88;6.78;;;;;;;19.37;71.12;100675.03;1761769;81;26493;-62
2021/08/22 07:37:55;;;;;;;6.83;5.85;;;;;;;19.44;71.02;100672.44;1761680;81;27501;-62
2021/08/22 07:40:22;;;;;;;9.93;6.22;;;;;;;19.49;70.17;100665.30;1761489;81;26391;-62
2021/08/22 07:42:48;;;;;;;8.78;7.10;;;;;;;19.57;70.18;100662.13;1761696;81;25650;-62
2021/08/22 07:45:15;;;;;;;8.13;6.70;;;;;;;19.68;70.08;100670.02;1761553;81;25859;-62
2021/08/22 07:47:41;;;;;;;7.58;6.30;;;;;;;19.83;69.56;100666.19;1761747;81;25736;-61
2021/08/22 07:50:09;;;;;;;10.18;6.53;;;;;;;20.00;69.98;100670.44;1761734;81;27335;-62
2021/08/22 07:52:36;;;;;;;7.58;6.12;;;;;;;20.32;70.04;100668.27;1761597;81;25679;-62
2021/08/22 07:55:04;;;;;;;8.38;6.37;;;;;;;20.62;68.64;100669.78;1761655;81;25353;-62
2021/08/22 07:57:31;;;;;;;7.80;6.17;;;;;;;20.81;67.19;100667.52;1761665;81;25745;-62
2021/08/22 07:59:58;;;;;;;7.40;5.90;;;;;;;20.96;67.59;100674.02;1761679;81;25768;-62
2021/08/22 08:02:24;;;;;;;7.87;5.92;;;;;;;21.32;67.66;100682.77;1761643;81;27356;-62
2021/08/22 08:04:51;;;;;;;6.90;5.22;;;;;;;21.65;66.72;100672.98;1761687;81;25726;-61
2021/08/22 08:07:18;;;;;;;6.03;5.37;;;;;;;22.09;66.29;100672.28;1761614;81;25650;-62
2021/08/22 08:09:45;;;;;;;6.92;5.58;;;;;;;22.42;65.43;100670.63;1761599;80;25704;-61
2021/08/22 08:12:11;;;;;;;6.83;5.08;;;;;;;22.68;64.36;100674.37;1761757;81;25681;-61
2021/08/22 08:14:38;;;;;;;6.97;5.30;;;;;;;22.80;62.93;100674.66;1761576;81;28094;-62
2021/08/22 08:17:04;;;;;;;6.50;5.17;;;;;;;22.81;61.50;100673.50;1761491;81;25692;-62
2021/08/22 08:19:31;;;;;;;5.78;4.50;;;;;;;22.81;60.62;100678.42;1761615;81;25684;-62
2021/08/22 08:21:57;;;;;;;5.92;5.33;;;;;;;22.74;58.79;100676.99;1761638;81;25694;-62
2021/08/22 08:24:24;;;;;;;6.80;4.28;;;;;;;22.66;59.07;100682.25;1733609;81;25721;-62
2021/08/22 08:26:50;;;;;;;6.80;4.67;;;;;;;22.67;58.67;100686.59;1761682;81;28141;-61
2021/08/22 08:29:17;;;;;;;5.28;4.37;;;;;;;22.50;57.20;100686.06;1733447;81;25729;-61
2021/08/22 08:31:44;;;;;;;6.12;4.70;;;;;;;22.45;57.88;100677.36;1761646;81;25637;-62
2021/08/22 08:34:10;;;;;;;7.45;4.53;;;;;;;22.59;57.88;100680.81;1761603;81;26786;-61
2021/08/22 08:36:37;;;;;;;7.15;4.87;;;;;;;22.72;57.02;100682.89;1761629;81;25684;-62
2021/08/22 08:39:03;;;;;;;7.12;4.95;;;;;;;22.70;57.34;100683.86;1761681;81;27379;-62
2021/08/22 08:41:29;;;;;;;6.40;4.55;;;;;;;22.74;57.41;100689.41;1761461;81;26393;-61
2021/08/22 08:43:56;;;;;;;8.08;4.53;;;;;;;22.62;57.00;100683.59;1761580;81;25694;-62
2021/08/22 08:46:30;;;;;;;5.62;4.30;;;;;;;22.50;57.07;100683.90;1733585;81;25715;-61
2021/08/22 08:49:16;;;;;;;4.65;4.12;;;;;;;22.40;57.40;100683.22;1761319;81;26062;-62
2021/08/22 08:52:06;;;;;;;7.33;4.47;;;;;;;22.33;57.52;100687.48;1761716;81;28036;-62
2021/08/22 08:54:49;;;;;;;5.03;3.92;;;;;;;22.36;57.37;100683.98;1761771;81;25657;-61
2021/08/22 08:57:16;;;;;;;5.42;4.08;;;;;;;22.30;56.80;100689.62;1761655;81;25649;-61
2021/08/22 08:59:43;;;;;;;5.92;4.70;;;;;;;22.34;57.27;100694.59;1761514;81;25784;-62
2021/08/22 09:02:10;;;;;;;7.00;4.80;;;;;;;22.39;57.58;100690.70;1761595;81;25693;-62
2021/08/22 09:04:51;;;;;;;4.37;3.92;;;;;;;22.51;57.25;100697.30;1761606;81;27480;-62
2021/08/22 09:08:08;;;;;;;5.47;4.40;;;;;;;22.66;57.47;100704.30;1749081;81;26721;-62
2021/08/22 09:11:01;;;;;;;4.95;4.40;;;;;;;22.62;56.71;100696.59;1761631;80;25954;-62
2021/08/22 09:14:09;;;;;;;4.67;4.22;;;;;;;22.55;55.70;100701.47;1757669;81;25803;-62
2021/08/22 09:17:21;;;;;;;10.18;6.10;;;;;;;22.43;56.21;100694.87;1761755;81;26378;-62
2021/08/22 09:20:30;;;;;;;7.03;4.90;;;;;;;22.34;56.04;100697.95;1761499;81;27310;-62
2021/08/22 09:23:35;;;;;;;7.12;4.50;;;;;;;22.22;55.83;100703.67;1760017;81;29728;-61
2021/08/22 09:26:42;;;;;;;5.55;4.62;;;;;;;21.98;56.25;100702.47;1757614;81;25745;-61
2021/08/22 09:30:03;;;;;;;5.37;4.20;;;;;;;21.87;56.41;100700.17;1758715;81;25753;-61
2021/08/22 09:33:24;;;;;;;6.97;5.70;;;;;;;21.74;57.17;100703.78;1672531;85;25750;-61
2021/08/22 09:36:27;;;;;;;6.70;5.45;;;;;;;21.45;56.35;100694.32;1672404;85;27770;-61
2021/08/22 09:39:48;;;;;;;7.33;5.03;;;;;;;21.23;56.39;100700.12;1672341;85;25726;-61
2021/08/22 09:42:54;;;;;;;5.33;4.78;;;;;;;21.00;57.23;100698.83;1672430;85;25870;-61
2021/08/22 09:46:01;;;;;;;6.87;4.50;;;;;;;20.86;57.76;100697.44;1672325;85;25739;-60
2021/08/22 09:48:58;;;;;;;5.85;4.97;;;;;;;20.73;57.87;100693.89;1672413;85;25742;-61
2021/08/22 09:51:49;;;;;;;5.80;5.00;;;;;;;20.62;58.30;100690.92;1672433;85;27398;-60
2021/08/22 09:54:47;;;;;;;6.35;5.30;;;;;;;20.61;58.83;100694.25;1672265;85;25862;-61
2021/08/22 09:57:51;;;;;;;7.25;4.85;;;;;;;20.71;59.59;100695.04;1672537;85;25747;-61
2021/08/22 10:00:41;;;;;;;7.50;5.05;;;;;;;21.04;59.58;100687.28;1672328;85;25776;-61
2021/08/22 10:03:46;;;;;;;6.47;4.90;;;;;;;21.36;59.80;100686.94;1672396;85;26093;-61
2021/08/22 10:06:57;;;;;;;6.08;5.10;;;;;;;21.73;59.95;100691.17;1700609;81;28079;-62
2021/08/22 10:09:26;;;;;;;6.50;5.28;;;;;;;22.13;59.23;100689.62;1761691;81;25838;-62
2021/08/22 10:12:02;;;;;;;6.30;4.90;;;;;;;22.64;58.68;100679.87;1761610;81;26345;-62
2021/08/22 10:14:30;;;;;;;7.78;4.87;;;;;;;23.08;57.10;100679.61;1761751;81;26707;-62
2021/08/22 10:16:57;;;;;;;5.47;4.35;;;;;;;23.54;56.68;100676.89;1761837;80;25903;-62
2021/08/22 10:19:28;;;;;;;5.83;4.67;;;;;;;24.19;55.98;100668.97;1761751;81;28083;-62
2021/08/22 10:22:18;;;;;;;6.35;4.22;;;;;;;24.82;55.08;100669.20;1761656;81;26401;-62
2021/08/22 10:24:52;;;;;;;7.53;4.60;;;;;;;25.14;53.92;100674.06;1761805;81;26290;-62
2021/08/22 10:27:37;;;;;;;5.03;4.50;;;;;;;25.82;53.70;100666.70;1761592;81;25706;-62
2021/08/22 10:30:12;;;;;;;5.22;3.90;;;;;;;26.41;51.83;100665.33;1761872;81;25717;-61
2021/08/22 10:33:00;;;;;;;4.90;4.12;;;;;;;26.50;50.81;100671.01;1761752;81;27519;-62
2021/08/22 10:35:31;;;;;;;4.40;3.70;;;;;;;26.62;49.83;100672.69;1761960;81;25609;-61
2021/08/22 10:38:23;;;;;;;4.70;4.20;;;;;;;26.86;48.32;100676.25;1761674;81;25728;-61
2021/08/22 10:40:51;;;;;;;4.37;3.95;;;;;;;26.95;47.25;100676.54;1761741;81;25747;-61
2021/08/22 10:43:25;;;;;;;3.70;3.35;;;;;;;26.87;45.93;100676.42;1761809;81;25762;-61
2021/08/22 10:45:53;;;;;;;4.67;3.60;;;;;;;26.66;45.55;100679.59;1754963;81;27389;-61
2021/08/22 10:48:29;;;;;;;6.75;3.47;;;;;;;26.45;45.72;100670.84;1761650;81;25684;-61
2021/08/22 10:51:08;;;;;;;4.37;3.95;;;;;;;26.20;46.06;100671.81;1761692;81;25658;-60
2021/08/22 10:53:37;;;;;;;4.50;4.00;;;;;;;25.97;45.97;100672.98;1761756;81;25652;-60
2021/08/22 10:56:29;;;;;;;4.80;3.98;;;;;;;25.73;46.82;100671.30;1761768;81;26304;-61
2021/08/22 10:59:04;;;;;;;7.08;3.50;;;;;;;25.61;47.00;100671.73;1761707;81;27939;-61
2021/08/22 11:01:34;;;;;;;4.28;3.40;;;;;;;25.51;46.92;100670.02;1761577;81;25694;-61
2021/08/22 11:04:22;;;;;;;3.80;3.10;;;;;;;25.76;47.00;100670.50;1761692;81;25716;-61
2021/08/22 11:07:05;;;;;;;5.22;3.37;;;;;;;26.28;47.46;100666.41;1761549;81;26451;-61
2021/08/22 11:09:41;;;;;;;4.78;3.60;;;;;;;26.70;46.14;100666.49;1761761;81;26311;-62
2021/08/22 11:12:34;;;;;;;5.00;3.95;;;;;;;27.18;46.64;100666.19;1758933;80;27296;-61
2021/08/22 11:15:04;;;;;;;5.05;3.70;;;;;;;27.76;45.27;100665.67;1758674;81;25752;-61
2021/08/22 11:17:32;;;;;;;4.28;3.40;;;;;;;28.18;43.74;100661.33;1739713;81;25831;-61
2021/08/22 11:20:12;;;;;;;3.83;3.50;;;;;;;28.49;43.94;100659.21;1758622;81;26253;-61
2021/08/22 11:22:39;;;;;;;5.10;3.58;;;;;;;28.50;42.87;100654.42;1758835;81;25662;-61
2021/08/22 11:25:08;;;;;;;4.25;3.42;;;;;;;28.26;41.78;100655.80;1758738;81;27446;-61
2021/08/22 11:27:35;;;;;;;6.22;3.40;;;;;;;28.00;40.85;100649.08;1758768;81;25747;-61
2021/08/22 11:30:06;;;;;;;4.20;3.00;;;;;;;27.89;41.99;100645.63;1758761;81;25302;-61
2021/08/22 11:32:35;;;;;;;5.72;3.10;;;;;;;27.94;41.65;100646.00;1758751;81;25731;-61
2021/08/22 11:35:21;;;;;;;;;;;;;;;27.91;41.58;100643.24;1761351;81;25722;-61